Time;durP1;ratioP1;P1;durP2;ratioP2;P2;SDS_P1;SDS_P2;PMS_P1;PMS_P2;Temp;Humidity;BMP_temperature;BMP_pressure;BME280_temperature;BME280_humidity;BME280_pressure;Samples;Min_cycle;Max_cycle;Signal;HPM_P1;HPM_P2
2024/01/08 00:01:51;;;;;;;3.17;1.97;;;;;-0.90;102303.00;;;;5035364;28;20233;-69
2024/01/08 00:04:37;;;;;;;2.80;2.17;;;;;-1.00;102305.00;;;;5028103;28;20298;-70
2024/01/08 00:07:25;;;;;;;3.43;1.70;;;;;-1.00;102307.00;;;;5040481;28;20220;-70
2024/01/08 00:10:13;;;;;;;5.00;2.00;;;;;-1.00;102315.00;;;;5038408;28;20303;-70
2024/01/08 00:12:59;;;;;;;2.30;1.40;;;;;-0.90;102314.00;;;;5042884;28;20216;-72
2024/01/08 00:15:46;;;;;;;2.27;1.70;;;;;-0.90;102318.00;;;;5026766;28;20232;-68
2024/01/08 00:18:32;;;;;;;2.20;1.83;;;;;-1.00;102324.00;;;;5034198;28;20299;-68
2024/01/08 00:21:18;;;;;;;1.80;1.70;;;;;-1.10;102319.00;;;;5042486;28;20249;-70
2024/01/08 00:24:05;;;;;;;2.60;2.20;;;;;-1.20;102314.00;;;;5035341;28;20276;-70
2024/01/08 00:26:53;;;;;;;1.67;1.57;;;;;-1.30;102316.00;;;;5038044;28;20237;-68
2024/01/08 00:29:39;;;;;;;3.03;2.13;;;;;-1.50;102302.00;;;;5041187;28;20240;-69
2024/01/08 00:32:25;;;;;;;2.00;1.63;;;;;-1.50;102305.00;;;;5035291;28;20236;-70
2024/01/08 00:35:12;;;;;;;1.40;1.30;;;;;-1.40;102314.00;;;;5043581;28;20240;-68
2024/01/08 00:37:59;;;;;;;1.77;1.43;;;;;-1.40;102311.00;;;;5042715;28;20331;-69
2024/01/08 00:40:45;;;;;;;2.17;2.07;;;;;-1.50;102311.00;;;;5036990;28;20236;-65
2024/01/08 00:43:33;;;;;;;1.70;1.60;;;;;-1.50;102302.00;;;;5038705;28;20229;-68
2024/01/08 00:46:19;;;;;;;1.80;1.70;;;;;-1.60;102304.00;;;;5037268;28;20232;-68
2024/01/08 00:49:05;;;;;;;1.50;1.40;;;;;-1.60;102305.00;;;;5045585;28;20286;-67
2024/01/08 00:51:52;;;;;;;1.50;1.40;;;;;-1.60;102313.00;;;;5043838;28;20367;-69
2024/01/08 00:54:38;;;;;;;2.17;1.60;;;;;-1.60;102304.00;;;;5045874;28;20228;-68
2024/01/08 00:57:25;;;;;;;1.97;1.37;;;;;-1.50;102308.00;;;;5045910;28;21032;-69
2024/01/08 01:00:13;;;;;;;1.20;1.20;;;;;-1.60;102307.00;;;;5042123;28;20224;-70
2024/01/08 01:02:59;;;;;;;2.03;1.70;;;;;-1.60;102315.00;;;;5041479;28;21037;-68
2024/01/08 01:05:45;;;;;;;3.73;1.50;;;;;-1.60;102300.00;;;;5041771;28;20359;-68
2024/01/08 01:08:32;;;;;;;1.80;1.57;;;;;-1.60;102298.00;;;;5040703;28;20299;-70
2024/01/08 01:11:19;;;;;;;2.93;2.70;;;;;-1.60;102305.00;;;;5044967;28;20769;-69
2024/01/08 01:14:06;;;;;;;1.63;1.47;;;;;-1.50;102302.00;;;;5043064;28;20764;-70
2024/01/08 01:16:53;;;;;;;2.07;1.87;;;;;-1.50;102309.00;;;;5037869;28;20241;-68
2024/01/08 01:19:40;;;;;;;2.07;1.90;;;;;-1.50;102315.00;;;;5040081;28;20229;-69
2024/01/08 01:22:26;;;;;;;1.53;1.20;;;;;-1.60;102315.00;;;;5042977;28;22662;-70
2024/01/08 01:25:13;;;;;;;3.90;2.50;;;;;-1.50;102307.00;;;;5043735;28;20602;-70
2024/01/08 01:27:59;;;;;;;2.80;2.23;;;;;-1.50;102317.00;;;;5043978;28;20315;-71
2024/01/08 01:30:45;;;;;;;2.00;1.90;;;;;-1.60;102319.00;;;;5039536;28;20463;-65
2024/01/08 01:33:33;;;;;;;1.53;1.43;;;;;-1.60;102318.00;;;;5042798;28;20299;-69
2024/01/08 01:36:19;;;;;;;2.77;1.60;;;;;-1.50;102321.00;;;;5043839;28;20292;-70
2024/01/08 01:39:06;;;;;;;4.87;1.80;;;;;-1.40;102322.00;;;;5042236;28;20233;-70
2024/01/08 01:41:52;;;;;;;2.10;2.00;;;;;-1.50;102320.00;;;;5036313;28;20863;-70
2024/01/08 01:44:38;;;;;;;1.60;1.27;;;;;-1.50;102329.00;;;;5033875;28;20718;-68
2024/01/08 01:47:25;;;;;;;1.97;1.73;;;;;-1.40;102319.00;;;;5043242;28;20240;-70
2024/01/08 01:50:12;;;;;;;2.57;1.97;;;;;-1.50;102332.00;;;;5042514;28;20243;-68
2024/01/08 01:52:58;;;;;;;2.27;2.07;;;;;-1.30;102327.00;;;;5039382;28;20241;-68
2024/01/08 01:55:46;;;;;;;4.97;2.47;;;;;-1.30;102324.00;;;;5039474;28;20248;-70
2024/01/08 01:58:32;;;;;;;1.47;1.37;;;;;-1.40;102326.00;;;;5044878;28;20231;-66
2024/01/08 02:01:20;;;;;;;1.97;1.87;;;;;-1.40;102320.00;;;;5043614;28;20236;-69
2024/01/08 02:04:08;;;;;;;1.57;1.47;;;;;-1.40;102318.00;;;;5044053;28;20237;-71
2024/01/08 02:06:57;;;;;;;2.70;1.93;;;;;-1.30;102316.00;;;;5036199;28;20241;-69
2024/01/08 02:09:44;;;;;;;1.50;1.40;;;;;-1.40;102327.00;;;;5031085;28;20283;-68
2024/01/08 02:12:30;;;;;;;1.90;1.80;;;;;-1.40;102316.00;;;;5043555;28;20631;-69
2024/01/08 02:15:17;;;;;;;4.50;1.40;;;;;-1.40;102325.00;;;;5039894;28;20605;-69
2024/01/08 02:18:04;;;;;;;2.20;2.00;;;;;-1.50;102309.00;;;;5042070;28;20252;-69
2024/01/08 02:20:50;;;;;;;2.27;1.87;;;;;-1.40;102321.00;;;;5033061;28;20262;-67
2024/01/08 02:23:38;;;;;;;2.23;1.43;;;;;-1.40;102325.00;;;;5039839;28;20236;-70
2024/01/08 02:26:25;;;;;;;3.00;2.47;;;;;-1.30;102321.00;;;;5044356;28;20232;-68
2024/01/08 02:29:11;;;;;;;1.90;1.77;;;;;-1.20;102310.00;;;;5039416;28;20282;-70
2024/01/08 02:31:57;;;;;;;1.93;1.83;;;;;-1.30;102315.00;;;;5038745;28;20236;-69
2024/01/08 02:34:43;;;;;;;2.07;1.97;;;;;-1.30;102321.00;;;;5041941;28;20232;-66
2024/01/08 02:37:30;;;;;;;2.10;2.00;;;;;-1.40;102319.00;;;;5035595;28;20236;-69
2024/01/08 02:40:19;;;;;;;5.00;1.67;;;;;-1.40;102316.00;;;;5042593;28;20358;-69
2024/01/08 02:43:05;;;;;;;2.20;2.00;;;;;-1.40;102327.00;;;;5036104;28;20348;-69
2024/01/08 02:45:51;;;;;;;2.60;2.40;;;;;-1.40;102313.00;;;;5036995;28;20294;-68
2024/01/08 02:48:38;;;;;;;3.17;2.53;;;;;-1.20;102314.00;;;;5041111;28;20228;-69
2024/01/08 02:51:24;;;;;;;2.30;2.10;;;;;-1.30;102320.00;;;;5040375;28;20236;-69
2024/01/08 02:54:10;;;;;;;2.50;2.20;;;;;-1.30;102327.00;;;;5038743;28;20224;-69
2024/01/08 02:56:59;;;;;;;2.87;2.50;;;;;-1.30;102335.00;;;;5037745;28;20376;-66
2024/01/08 02:59:45;;;;;;;1.67;1.57;;;;;-1.40;102329.00;;;;5036511;28;20657;-70
2024/01/08 03:02:31;;;;;;;2.50;1.93;;;;;-1.40;102337.00;;;;5043009;28;20284;-69
2024/01/08 03:05:18;;;;;;;3.80;2.17;;;;;-1.20;102344.00;;;;5040744;28;20221;-68
2024/01/08 03:08:05;;;;;;;2.33;2.13;;;;;-1.40;102339.00;;;;5044245;28;20402;-69
2024/01/08 03:10:51;;;;;;;4.40;2.23;;;;;-1.40;102346.00;;;;5034850;28;20241;-68
2024/01/08 03:13:38;;;;;;;3.47;1.93;;;;;-1.50;102354.00;;;;5039046;28;20232;-70
2024/01/08 03:16:25;;;;;;;4.23;2.43;;;;;-1.50;102338.00;;;;5037961;28;20237;-71
2024/01/08 03:19:11;;;;;;;2.73;1.43;;;;;-1.40;102338.00;;;;5040492;28;20233;-70
2024/01/08 03:22:00;;;;;;;4.00;1.73;;;;;-1.40;102333.00;;;;5037350;28;20370;-67
2024/01/08 03:24:46;;;;;;;2.70;2.30;;;;;-1.40;102336.00;;;;5036658;28;20255;-65
2024/01/08 03:27:33;;;;;;;2.00;1.87;;;;;-1.40;102339.00;;;;5043016;28;20597;-69
2024/01/08 03:30:20;;;;;;;1.77;1.67;;;;;-1.30;102334.00;;;;5039741;28;20954;-69
2024/01/08 03:33:07;;;;;;;2.13;1.93;;;;;-1.40;102333.00;;;;5036312;28;20232;-68
2024/01/08 03:35:53;;;;;;;2.53;2.03;;;;;-1.30;102339.00;;;;5037073;28;20243;-69
2024/01/08 03:38:39;;;;;;;3.17;2.30;;;;;-1.40;102340.00;;;;5041204;28;20295;-69
2024/01/08 03:41:25;;;;;;;3.20;2.00;;;;;-1.40;102333.00;;;;5044521;28;20465;-71
2024/01/08 03:44:13;;;;;;;2.23;2.00;;;;;-1.30;102346.00;;;;5040236;28;20623;-71
2024/01/08 03:47:01;;;;;;;2.70;1.80;;;;;-1.50;102343.00;;;;5043117;28;20232;-69
2024/01/08 03:49:47;;;;;;;5.53;3.33;;;;;-1.40;102349.00;;;;5037356;28;20363;-71
2024/01/08 03:52:33;;;;;;;2.90;1.70;;;;;-1.30;102350.00;;;;5036259;28;20236;-70
2024/01/08 03:55:20;;;;;;;5.80;2.27;;;;;-1.40;102349.00;;;;5040909;28;20236;-71
2024/01/08 03:58:06;;;;;;;2.90;2.57;;;;;-1.40;102346.00;;;;5037281;28;20249;-69
2024/01/08 04:00:53;;;;;;;4.63;2.70;;;;;-1.40;102341.00;;;;5037394;28;20303;-68
2024/01/08 04:03:41;;;;;;;3.23;2.47;;;;;-1.50;102337.00;;;;5044900;28;20236;-69
2024/01/08 04:06:27;;;;;;;1.97;1.87;;;;;-1.40;102339.00;;;;5047551;28;20327;-69
2024/01/08 04:09:16;;;;;;;3.50;2.30;;;;;-1.30;102346.00;;;;5047618;28;20227;-69
2024/01/08 04:12:04;;;;;;;3.20;2.90;;;;;-1.30;102345.00;;;;5041010;28;20592;-68
2024/01/08 04:14:50;;;;;;;2.87;2.10;;;;;-1.40;102343.00;;;;5034863;28;20227;-69
2024/01/08 04:17:36;;;;;;;2.33;2.13;;;;;-1.30;102345.00;;;;5047091;28;20236;-70
2024/01/08 04:20:26;;;;;;;2.63;2.43;;;;;-1.30;102348.00;;;;5046000;28;20236;-69
2024/01/08 04:23:13;;;;;;;9.57;3.00;;;;;-1.30;102338.00;;;;5037654;28;20236;-69
2024/01/08 04:25:59;;;;;;;3.37;3.07;;;;;-1.40;102341.00;;;;5036691;28;20348;-70
2024/01/08 04:28:45;;;;;;;2.57;1.93;;;;;-1.40;102345.00;;;;5047134;28;20298;-69
2024/01/08 04:31:32;;;;;;;3.37;2.67;;;;;-1.40;102343.00;;;;5047291;28;20232;-70
2024/01/08 04:34:18;;;;;;;5.37;2.53;;;;;-1.30;102347.00;;;;5042412;28;20236;-71
2024/01/08 04:37:05;;;;;;;3.93;3.20;;;;;-1.30;102338.00;;;;5041742;28;20232;-70
2024/01/08 04:39:52;;;;;;;3.60;2.77;;;;;-1.20;102344.00;;;;5037592;28;20244;-69
2024/01/08 04:42:38;;;;;;;3.97;2.70;;;;;-1.20;102347.00;;;;5038753;28;20308;-69
2024/01/08 04:45:24;;;;;;;5.23;3.40;;;;;-1.30;102349.00;;;;5047024;28;20792;-70
2024/01/08 04:48:11;;;;;;;2.40;2.20;;;;;-1.20;102339.00;;;;5041415;28;20367;-70
2024/01/08 04:50:57;;;;;;;3.97;2.30;;;;;-1.10;102339.00;;;;5033006;28;20217;-71
2024/01/08 04:53:45;;;;;;;2.97;2.50;;;;;-1.20;102340.00;;;;5043718;28;20232;-70
2024/01/08 04:56:31;;;;;;;4.53;3.03;;;;;-1.30;102336.00;;;;5043356;28;20585;-69
2024/01/08 04:59:19;;;;;;;4.30;3.17;;;;;-1.30;102349.00;;;;5041494;28;20720;-69
2024/01/08 05:02:06;;;;;;;3.17;2.57;;;;;-1.20;102339.00;;;;5034805;28;20243;-70
2024/01/08 05:04:52;;;;;;;3.83;2.97;;;;;-1.20;102364.00;;;;5037786;28;20595;-72
2024/01/08 05:07:38;;;;;;;3.17;2.73;;;;;-1.20;102341.00;;;;5043740;28;20953;-70
2024/01/08 05:10:26;;;;;;;2.47;2.27;;;;;-1.20;102337.00;;;;5046595;28;20763;-70
2024/01/08 05:13:12;;;;;;;2.40;2.23;;;;;-1.20;102341.00;;;;5039147;28;20237;-66
2024/01/08 05:15:58;;;;;;;3.60;3.23;;;;;-1.20;102328.00;;;;5038164;28;20236;-70
2024/01/08 05:18:44;;;;;;;7.40;2.60;;;;;-1.20;102329.00;;;;5042502;28;20819;-71
2024/01/08 05:21:31;;;;;;;3.70;2.80;;;;;-1.20;102337.00;;;;5044241;28;20292;-69
2024/01/08 05:24:17;;;;;;;3.83;3.33;;;;;-1.20;102341.00;;;;5040676;28;20233;-70
2024/01/08 05:27:05;;;;;;;3.50;2.90;;;;;-1.20;102335.00;;;;5038765;28;20301;-67
2024/01/08 05:29:51;;;;;;;3.23;2.93;;;;;-1.30;102343.00;;;;5041460;28;20299;-71
2024/01/08 05:32:38;;;;;;;4.93;3.13;;;;;-1.30;102338.00;;;;5045295;28;20306;-70
2024/01/08 05:35:24;;;;;;;3.33;2.50;;;;;-1.10;102333.00;;;;5036475;28;20827;-69
2024/01/08 05:38:10;;;;;;;3.70;3.13;;;;;-1.10;102331.00;;;;5039107;28;20744;-71
2024/01/08 05:40:57;;;;;;;3.37;2.23;;;;;-1.10;102341.00;;;;5042160;28;20239;-71
2024/01/08 05:43:44;;;;;;;5.50;3.30;;;;;-1.10;102343.00;;;;5045246;28;20244;-73
2024/01/08 05:46:31;;;;;;;5.10;3.23;;;;;-1.10;102337.00;;;;5045202;28;20732;-71
2024/01/08 05:49:18;;;;;;;6.27;2.50;;;;;-1.10;102339.00;;;;5044204;28;20642;-70
2024/01/08 05:52:05;;;;;;;4.60;2.50;;;;;-1.10;102343.00;;;;5038571;28;20859;-69
2024/01/08 05:54:51;;;;;;;2.90;2.13;;;;;-1.10;102345.00;;;;5045441;28;20728;-68
2024/01/08 05:57:38;;;;;;;6.90;3.40;;;;;-1.10;102336.00;;;;5042015;28;20398;-69
2024/01/08 06:00:25;;;;;;;3.00;2.70;;;;;-1.20;102345.00;;;;5039072;28;20235;-70
2024/01/08 06:03:12;;;;;;;3.07;2.33;;;;;-1.10;102353.00;;;;5038528;28;20314;-70
2024/01/08 06:05:58;;;;;;;2.63;2.20;;;;;-1.00;102340.00;;;;5043490;28;20311;-69
2024/01/08 06:08:44;;;;;;;3.73;3.10;;;;;-1.00;102344.00;;;;5041844;28;20232;-68
2024/01/08 06:11:31;;;;;;;4.13;2.40;;;;;-1.00;102350.00;;;;5042072;28;20236;-70
2024/01/08 06:14:17;;;;;;;2.67;2.37;;;;;-1.10;102350.00;;;;5045217;28;20232;-69
2024/01/08 06:17:05;;;;;;;4.37;3.47;;;;;-1.10;102350.00;;;;5038401;28;21133;-70
2024/01/08 06:19:51;;;;;;;4.67;3.57;;;;;-1.10;102356.00;;;;5045441;28;20632;-72
2024/01/08 06:22:37;;;;;;;4.00;2.87;;;;;-1.00;102356.00;;;;5035108;28;20304;-72
2024/01/08 06:25:23;;;;;;;3.57;2.87;;;;;-1.10;102353.00;;;;5044536;28;20228;-70
2024/01/08 06:28:10;;;;;;;3.70;3.07;;;;;-1.10;102350.00;;;;5034241;28;20231;-70
2024/01/08 06:30:57;;;;;;;3.17;2.37;;;;;-1.20;102369.00;;;;5034197;28;20338;-69
2024/01/08 06:33:44;;;;;;;3.20;2.47;;;;;-1.20;102365.00;;;;5038462;28;20237;-69
2024/01/08 06:36:31;;;;;;;4.20;2.43;;;;;-1.10;102361.00;;;;5041121;28;20780;-72
2024/01/08 06:39:18;;;;;;;3.57;2.80;;;;;-1.10;102359.00;;;;5044128;28;20232;-69
2024/01/08 06:42:05;;;;;;;2.33;1.83;;;;;-1.10;102364.00;;;;5036680;28;20229;-69
2024/01/08 06:44:51;;;;;;;5.50;3.07;;;;;-1.10;102366.00;;;;5040374;28;20615;-70
2024/01/08 06:47:37;;;;;;;3.47;2.87;;;;;-1.10;102366.00;;;;5040271;28;20362;-68
2024/01/08 06:50:25;;;;;;;3.23;2.80;;;;;-1.10;102361.00;;;;5034207;28;20229;-72
2024/01/08 06:53:11;;;;;;;3.83;3.40;;;;;-1.10;102377.00;;;;5039116;28;20225;-70
2024/01/08 06:55:57;;;;;;;2.90;2.70;;;;;-1.20;102374.00;;;;5043938;28;20733;-68
2024/01/08 06:58:44;;;;;;;4.17;3.00;;;;;-1.20;102363.00;;;;5032959;28;20303;-72
2024/01/08 07:01:30;;;;;;;2.67;2.47;;;;;-1.20;102366.00;;;;5037518;28;20240;-70
2024/01/08 07:04:16;;;;;;;2.40;1.90;;;;;-1.20;102364.00;;;;5039044;28;20244;-70
2024/01/08 07:07:04;;;;;;;3.03;2.73;;;;;-1.20;102360.00;;;;5041271;28;20298;-70
2024/01/08 07:09:50;;;;;;;3.23;2.67;;;;;-1.10;102369.00;;;;5045084;28;20240;-71
2024/01/08 07:12:37;;;;;;;2.47;1.80;;;;;-1.10;102375.00;;;;5039618;28;20220;-72
2024/01/08 07:15:37;;;;;;;2.73;2.50;;;;;-1.10;102373.00;;;;5044222;28;20247;-70
2024/01/08 07:18:24;;;;;;;4.10;2.77;;;;;-1.10;102377.00;;;;5038720;28;20240;-70
2024/01/08 07:21:13;;;;;;;2.87;2.60;;;;;-1.00;102383.00;;;;5041480;28;20625;-72
2024/01/08 07:24:00;;;;;;;3.93;3.30;;;;;-1.10;102376.00;;;;5032151;28;20229;-72
2024/01/08 07:26:47;;;;;;;2.93;2.17;;;;;-1.10;102385.00;;;;5039715;28;20228;-72
2024/01/08 07:29:33;;;;;;;2.43;2.23;;;;;-1.10;102388.00;;;;5039454;28;20231;-67
2024/01/08 07:32:19;;;;;;;4.03;1.77;;;;;-1.10;102388.00;;;;5037573;28;20733;-71
2024/01/08 07:35:06;;;;;;;2.50;2.30;;;;;-1.20;102396.00;;;;5038038;28;20235;-70
2024/01/08 07:37:55;;;;;;;5.23;2.97;;;;;-1.10;102392.00;;;;5038010;28;20236;-72
2024/01/08 07:40:43;;;;;;;2.57;1.80;;;;;-1.20;102389.00;;;;5040084;28;20321;-69
2024/01/08 07:43:29;;;;;;;2.90;2.60;;;;;-1.10;102391.00;;;;5040307;28;20751;-70
2024/01/08 07:46:17;;;;;;;3.33;2.70;;;;;-1.10;102392.00;;;;5042516;28;20312;-70
2024/01/08 07:49:04;;;;;;;3.17;2.87;;;;;-1.10;102394.00;;;;5045714;28;20236;-69
2024/01/08 07:51:50;;;;;;;2.70;2.33;;;;;-1.20;102390.00;;;;5038138;28;20851;-71
2024/01/08 07:54:36;;;;;;;3.37;2.43;;;;;-1.20;102389.00;;;;5045445;28;20236;-71
2024/01/08 07:57:24;;;;;;;2.53;2.40;;;;;-1.10;102391.00;;;;5041906;28;20355;-70
2024/01/08 08:00:12;;;;;;;3.63;2.80;;;;;-1.20;102399.00;;;;5047776;28;20855;-68
2024/01/08 08:02:58;;;;;;;3.83;2.97;;;;;-1.10;102410.00;;;;5037906;28;20602;-70
2024/01/08 08:05:45;;;;;;;4.07;3.23;;;;;-1.10;102398.00;;;;5042244;28;20858;-71
2024/01/08 08:08:34;;;;;;;3.60;2.50;;;;;-1.20;102404.00;;;;5044909;28;20720;-69
2024/01/08 08:11:20;;;;;;;4.43;3.03;;;;;-1.20;102410.00;;;;5043171;28;20236;-69
2024/01/08 08:14:08;;;;;;;2.13;1.93;;;;;-1.20;102402.00;;;;5044973;28;20712;-72
2024/01/08 08:16:54;;;;;;;3.87;2.47;;;;;-1.20;102408.00;;;;5039300;28;20244;-70
2024/01/08 08:19:41;;;;;;;4.90;2.63;;;;;-1.20;102406.00;;;;5043172;28;20603;-70
2024/01/08 08:22:28;;;;;;;4.50;2.57;;;;;-1.20;102419.00;;;;5042728;28;20232;-71
2024/01/08 08:25:14;;;;;;;3.17;2.90;;;;;-1.30;102430.00;;;;5039290;28;20236;-70
2024/01/08 08:28:01;;;;;;;2.33;2.00;;;;;-1.40;102409.00;;;;5043199;28;20244;-70
2024/01/08 08:30:48;;;;;;;3.10;2.90;;;;;-1.40;102410.00;;;;5047910;28;20232;-67
2024/01/08 08:33:35;;;;;;;3.07;2.87;;;;;-1.30;102418.00;;;;5040464;28;20316;-72
2024/01/08 08:36:22;;;;;;;2.43;2.17;;;;;-1.20;102418.00;;;;5042420;28;20224;-71
2024/01/08 08:39:08;;;;;;;2.60;2.40;;;;;-1.20;102421.00;;;;5043499;28;20249;-70
2024/01/08 08:41:54;;;;;;;3.37;2.63;;;;;-1.10;102427.00;;;;5039709;28;20229;-69
2024/01/08 08:44:41;;;;;;;4.10;2.63;;;;;-1.10;102431.00;;;;5046431;28;20237;-68
2024/01/08 08:47:28;;;;;;;3.10;2.83;;;;;-1.10;102425.00;;;;5040543;28;20237;-70
2024/01/08 08:50:15;;;;;;;2.63;2.40;;;;;-1.10;102427.00;;;;5039419;28;20224;-72
2024/01/08 08:53:01;;;;;;;4.03;2.67;;;;;-1.10;102433.00;;;;5040068;28;20312;-70
2024/01/08 08:55:48;;;;;;;2.63;2.43;;;;;-1.20;102443.00;;;;5045592;28;20713;-71
2024/01/08 08:58:34;;;;;;;5.13;3.03;;;;;-1.30;102432.00;;;;5041143;28;20229;-67
2024/01/08 09:01:21;;;;;;;3.87;2.27;;;;;-1.20;102433.00;;;;5036613;28;20251;-70
2024/01/08 09:04:09;;;;;;;2.40;1.37;;;;;-1.30;102442.00;;;;5040847;28;20738;-73
2024/01/08 09:06:55;;;;;;;2.33;1.90;;;;;-1.40;102432.00;;;;5036343;28;20360;-72
2024/01/08 09:09:44;;;;;;;2.00;1.80;;;;;-1.20;102431.00;;;;5040318;28;20236;-70
2024/01/08 09:12:30;;;;;;;1.67;1.57;;;;;-1.30;102443.00;;;;5040188;28;20236;-73
2024/01/08 09:15:16;;;;;;;1.57;1.40;;;;;-1.40;102453.00;;;;5044100;28;20225;-70
2024/01/08 09:18:03;;;;;;;2.00;1.83;;;;;-1.40;102450.00;;;;5036105;28;20836;-70
2024/01/08 09:20:51;;;;;;;4.33;2.17;;;;;-1.40;102459.00;;;;5044407;28;20240;-69
2024/01/08 09:23:37;;;;;;;1.20;1.17;;;;;-1.20;102461.00;;;;5040069;28;20716;-71
2024/01/08 09:26:24;;;;;;;1.90;1.80;;;;;-1.10;102460.00;;;;5043400;28;20260;-73
2024/01/08 09:29:11;;;;;;;1.60;1.50;;;;;-1.30;102465.00;;;;5039076;28;20310;-71
2024/01/08 09:31:58;;;;;;;2.57;1.80;;;;;-1.20;102454.00;;;;5035996;28;20226;-71
2024/01/08 09:34:44;;;;;;;1.30;1.20;;;;;-1.20;102472.00;;;;5036752;28;20255;-71
2024/01/08 09:37:31;;;;;;;1.60;1.30;;;;;-1.20;102465.00;;;;5034386;28;20256;-72
2024/01/08 09:40:18;;;;;;;2.03;1.27;;;;;-1.20;102464.00;;;;5034144;28;20228;-72
2024/01/08 09:43:07;;;;;;;1.57;1.47;;;;;-1.10;102473.00;;;;5037608;28;20356;-70
2024/01/08 09:46:02;;;;;;;8.63;1.40;;;;;-1.10;102477.00;;;;5037829;28;20771;-70
2024/01/08 09:48:49;;;;;;;2.13;1.83;;;;;-1.10;102481.00;;;;5037580;28;20233;-69
2024/01/08 09:51:35;;;;;;;3.23;1.93;;;;;-1.10;102488.00;;;;5039286;28;20228;-71
2024/01/08 09:54:26;;;;;;;1.40;1.30;;;;;-1.10;102481.00;;;;5045463;28;20232;-70
2024/01/08 09:57:12;;;;;;;1.03;0.93;;;;;-1.10;102473.00;;;;5044409;28;20241;-71
2024/01/08 09:59:58;;;;;;;1.87;1.20;;;;;-1.20;102488.00;;;;5042848;28;20262;-71
2024/01/08 10:02:44;;;;;;;1.20;1.20;;;;;-1.10;102486.00;;;;5043021;28;20236;-70
2024/01/08 10:05:35;;;;;;;1.83;1.20;;;;;-0.90;102482.00;;;;5038706;28;20220;-71
2024/01/08 10:08:22;;;;;;;1.60;1.50;;;;;-0.80;102493.00;;;;5042501;28;20232;-69
2024/01/08 10:11:11;;;;;;;1.57;1.47;;;;;-1.00;102486.00;;;;5040953;28;20344;-69
2024/01/08 10:13:58;;;;;;;1.53;1.40;;;;;-0.90;102480.00;;;;5043184;28;20749;-70
2024/01/08 10:16:44;;;;;;;5.63;1.80;;;;;-0.90;102483.00;;;;5040005;28;20251;-71
2024/01/08 10:19:46;;;;;;;1.00;1.00;;;;;-0.80;102478.00;;;;5036588;28;20224;-69
2024/01/08 10:22:33;;;;;;;1.43;1.20;;;;;-0.80;102487.00;;;;5044603;28;20224;-70
2024/01/08 10:25:21;;;;;;;1.87;1.43;;;;;-0.80;102498.00;;;;5041574;28;20974;-70
2024/01/08 10:28:10;;;;;;;1.20;1.20;;;;;-0.80;102482.00;;;;5031541;28;20229;-72
2024/01/08 10:30:57;;;;;;;1.47;1.37;;;;;-0.90;102494.00;;;;5034179;28;20241;-71
2024/01/08 10:33:44;;;;;;;1.37;1.10;;;;;-0.90;102495.00;;;;5031693;28;20353;-69
2024/01/08 10:36:33;;;;;;;0.80;0.80;;;;;-0.80;102490.00;;;;5035766;28;20256;-69
2024/01/08 10:39:21;;;;;;;2.73;1.60;;;;;-0.80;102488.00;;;;5035754;28;20238;-72
2024/01/08 10:42:19;;;;;;;1.27;1.23;;;;;-0.80;102497.00;;;;5040223;28;20232;-71
2024/01/08 10:45:08;;;;;;;1.10;1.10;;;;;-0.80;102494.00;;;;5026723;28;20281;-73
2024/01/08 10:48:06;;;;;;;15.17;1.67;;;;;-0.70;102481.00;;;;5039748;28;20364;-72
2024/01/08 10:50:54;;;;;;;1.07;1.00;;;;;-0.80;102493.00;;;;5039446;28;20232;-72
2024/01/08 10:53:44;;;;;;;1.10;1.00;;;;;-0.70;102488.00;;;;5037477;28;20307;-75
2024/01/08 10:56:31;;;;;;;1.50;1.40;;;;;-0.70;102487.00;;;;5036072;28;20320;-72
2024/01/08 10:59:22;;;;;;;2.03;1.60;;;;;-0.70;102494.00;;;;5037238;28;20628;-72
2024/01/08 11:02:14;;;;;;;1.53;1.43;;;;;-0.80;102492.00;;;;5037396;28;20987;-75
2024/01/08 11:05:00;;;;;;;1.80;1.30;;;;;-0.70;102485.00;;;;5031750;28;20240;-73
2024/01/08 11:07:49;;;;;;;1.73;1.57;;;;;-0.50;102486.00;;;;5034835;28;20484;-69
2024/01/08 11:10:36;;;;;;;1.50;1.37;;;;;-0.60;102483.00;;;;5035536;28;20321;-73
2024/01/08 11:13:22;;;;;;;1.40;1.37;;;;;-0.70;102507.00;;;;5031820;28;20220;-70
2024/01/08 11:16:09;;;;;;;2.27;1.97;;;;;-0.60;102509.00;;;;5043298;28;20617;-70
2024/01/08 11:19:24;;;;;;;1.23;1.13;;;;;-0.80;102498.00;;;;5031982;28;20239;-74
2024/01/08 11:22:11;;;;;;;0.97;0.97;;;;;-0.70;102493.00;;;;5029907;28;20788;-73
2024/01/08 11:24:58;;;;;;;1.50;1.37;;;;;-0.70;102470.00;;;;5028134;28;20652;-74
2024/01/08 11:27:45;;;;;;;1.50;1.40;;;;;-0.60;102471.00;;;;5025359;28;20240;-75
2024/01/08 11:30:31;;;;;;;1.63;1.27;;;;;-0.70;102492.00;;;;5034137;28;20245;-74
2024/01/08 11:33:31;;;;;;;1.70;1.37;;;;;-0.60;102476.00;;;;5021002;28;21453;-73
2024/01/08 11:36:30;;;;;;;1.10;1.10;;;;;-0.50;102479.00;;;;5031710;28;20598;-73
2024/01/08 11:39:18;;;;;;;1.50;1.40;;;;;-0.50;102483.00;;;;5038928;28;20248;-71
2024/01/08 11:42:06;;;;;;;0.97;0.97;;;;;-0.40;102485.00;;;;5029291;28;20721;-70
2024/01/08 11:44:58;;;;;;;1.27;1.27;;;;;-0.50;102490.00;;;;5036653;28;20280;-73
2024/01/08 11:47:45;;;;;;;1.90;1.20;;;;;-0.60;102484.00;;;;5031258;28;20621;-74
2024/01/08 11:50:32;;;;;;;3.40;0.97;;;;;-0.60;102485.00;;;;5040183;28;20302;-73
2024/01/08 11:53:21;;;;;;;0.90;0.90;;;;;-0.60;102495.00;;;;5026612;28;20665;-72
2024/01/08 11:56:07;;;;;;;1.27;1.17;;;;;-0.70;102479.00;;;;5035552;28;20268;-72
2024/01/08 11:58:54;;;;;;;1.57;1.07;;;;;-0.60;102488.00;;;;5028050;28;20233;-68
2024/01/08 12:01:41;;;;;;;1.40;1.30;;;;;-0.50;102474.00;;;;5031209;28;20225;-73
2024/01/08 12:04:28;;;;;;;1.40;1.30;;;;;-0.40;102484.00;;;;5037180;28;20314;-73
2024/01/08 12:07:14;;;;;;;1.30;1.20;;;;;-0.40;102481.00;;;;5035515;28;20235;-74
2024/01/08 12:10:06;;;;;;;1.93;1.83;;;;;-0.50;102474.00;;;;5031384;28;20318;-72
2024/01/08 12:12:55;;;;;;;2.07;1.20;;;;;-0.40;102476.00;;;;5035705;28;20832;-71
2024/01/08 12:15:41;;;;;;;1.20;1.13;;;;;-0.40;102472.00;;;;5036566;28;20995;-70
2024/01/08 12:18:28;;;;;;;1.27;1.20;;;;;-0.30;102466.00;;;;5042432;28;20777;-70
2024/01/08 12:21:14;;;;;;;1.93;1.70;;;;;-0.20;102465.00;;;;5039088;28;20303;-73
2024/01/08 12:24:01;;;;;;;1.70;1.60;;;;;-0.20;102471.00;;;;5041205;28;20232;-71
2024/01/08 12:26:49;;;;;;;1.07;1.07;;;;;-0.40;102495.00;;;;5041976;28;20243;-73
2024/01/08 12:29:39;;;;;;;1.43;1.33;;;;;-0.40;102478.00;;;;5045475;28;20228;-70
2024/01/08 12:32:27;;;;;;;4.63;2.10;;;;;-0.40;102479.00;;;;5036816;28;20230;-71
2024/01/08 12:35:15;;;;;;;2.60;1.73;;;;;-0.40;102478.00;;;;5044993;28;20232;-71
2024/01/08 12:38:02;;;;;;;2.63;1.83;;;;;-0.40;102481.00;;;;5043684;28;20232;-73
2024/01/08 12:40:51;;;;;;;1.10;1.10;;;;;-0.30;102480.00;;;;5043325;28;20597;-73
2024/01/08 12:43:38;;;;;;;1.10;1.10;;;;;-0.30;102481.00;;;;5038448;28;20233;-72
2024/01/08 12:46:25;;;;;;;0.93;0.93;;;;;-0.40;102475.00;;;;5041548;28;21056;-72
2024/01/08 12:49:13;;;;;;;2.03;1.70;;;;;-0.60;102476.00;;;;5041836;28;20244;-73
2024/01/08 12:52:00;;;;;;;1.00;1.00;;;;;-0.60;102478.00;;;;5035743;28;20752;-73
2024/01/08 12:54:46;;;;;;;1.37;1.27;;;;;-0.60;102484.00;;;;5037880;28;20240;-74
2024/01/08 12:57:33;;;;;;;1.70;1.60;;;;;-0.60;102484.00;;;;5045382;28;20236;-74
2024/01/08 13:00:21;;;;;;;1.93;1.77;;;;;-0.60;102471.00;;;;5044030;28;20232;-73
2024/01/08 13:03:07;;;;;;;2.20;1.20;;;;;-0.50;102475.00;;;;5038383;28;20225;-72
2024/01/08 13:05:53;;;;;;;1.93;1.70;;;;;-0.50;102474.00;;;;5039965;28;20271;-74
2024/01/08 13:08:39;;;;;;;2.43;1.30;;;;;-0.40;102469.00;;;;5044643;28;20237;-74
2024/01/08 13:11:26;;;;;;;2.27;1.40;;;;;-0.40;102471.00;;;;5046071;28;20360;-72
2024/01/08 13:14:13;;;;;;;2.37;1.90;;;;;-0.40;102475.00;;;;5045185;28;20248;-74
2024/01/08 13:17:01;;;;;;;1.57;1.47;;;;;-0.50;102484.00;;;;5035168;28;20648;-73
2024/01/08 13:19:47;;;;;;;2.70;1.60;;;;;-0.60;102474.00;;;;5037898;28;20232;-72
2024/01/08 13:22:34;;;;;;;2.73;1.77;;;;;-0.80;102479.00;;;;5045389;28;20271;-74
2024/01/08 13:25:21;;;;;;;1.87;1.70;;;;;-0.90;102471.00;;;;5037063;28;20228;-73
2024/01/08 13:28:07;;;;;;;1.60;1.50;;;;;-0.90;102484.00;;;;5039555;28;20274;-74
2024/01/08 13:30:53;;;;;;;1.40;1.30;;;;;-0.90;102490.00;;;;5037180;28;20236;-74
2024/01/08 13:33:42;;;;;;;1.97;1.77;;;;;-0.80;102478.00;;;;5041955;28;20348;-75
2024/01/08 13:36:29;;;;;;;1.60;1.40;;;;;-0.80;102486.00;;;;5038431;28;20619;-73
2024/01/08 13:39:15;;;;;;;1.60;1.37;;;;;-0.80;102491.00;;;;5034058;28;20733;-71
2024/01/08 13:42:02;;;;;;;3.70;1.50;;;;;-0.80;102485.00;;;;5037752;28;20229;-71
2024/01/08 13:44:48;;;;;;;2.33;2.07;;;;;-0.80;102496.00;;;;5045598;28;20735;-71
2024/01/08 13:47:34;;;;;;;1.47;1.37;;;;;-0.80;102492.00;;;;5038776;28;20236;-73